createdAt,value
2023-04-30T00:03:24.674Z,56.10
2023-04-30T00:08:27.162Z,56.20
2023-04-30T00:13:29.417Z,56.20
2023-04-30T00:18:31.712Z,56.10
2023-04-30T00:23:33.923Z,56.20
2023-04-30T00:28:36.197Z,56.20
2023-04-30T00:33:38.364Z,56.10
2023-04-30T00:38:40.592Z,56.30
2023-04-30T00:43:42.852Z,55.70
2023-04-30T00:48:45.224Z,55.90
2023-04-30T00:53:47.563Z,55.90
2023-04-30T00:58:51.526Z,55.70
2023-04-30T01:03:53.782Z,56.10
2023-04-30T01:08:57.392Z,55.90
2023-04-30T01:19:38.344Z,55.80
2023-04-30T01:29:55.135Z,55.80
2023-04-30T01:34:57.702Z,55.70
2023-04-30T01:50:47.727Z,55.90
2023-04-30T01:55:57.991Z,55.80
2023-04-30T02:01:00.351Z,55.60
2023-04-30T02:06:03.096Z,55.40
2023-04-30T02:11:05.663Z,55.50
2023-04-30T02:16:08.113Z,55.40
2023-04-30T02:21:10.394Z,55.40
2023-04-30T02:26:12.627Z,55.30
2023-04-30T02:31:14.888Z,55.20
2023-04-30T02:36:17.108Z,55.50
2023-04-30T02:41:19.332Z,55.60
2023-04-30T02:46:21.958Z,55.60
2023-04-30T02:51:24.236Z,55.70
2023-04-30T02:56:26.556Z,55.70
2023-04-30T03:01:29.048Z,55.90
2023-04-30T03:06:32.624Z,55.60
2023-04-30T03:11:37.757Z,55.60
2023-04-30T03:16:40.256Z,55.50
2023-04-30T03:21:42.677Z,55.00
2023-04-30T03:26:45.314Z,55.30
2023-04-30T03:31:47.574Z,55.40
2023-04-30T03:36:49.831Z,55.00
2023-04-30T03:41:52.010Z,55.30
2023-04-30T03:46:54.175Z,54.90
2023-04-30T03:51:56.381Z,55.00
2023-04-30T03:56:58.601Z,55.40
2023-04-30T04:02:01.853Z,55.90
2023-04-30T04:07:07.907Z,55.90
2023-04-30T04:12:10.737Z,55.80
2023-04-30T04:17:13.112Z,56.00
2023-04-30T04:22:15.535Z,55.90
2023-04-30T04:27:18.114Z,55.40
2023-04-30T04:32:20.488Z,55.30
2023-04-30T04:37:23.640Z,55.50
2023-04-30T04:42:26.056Z,55.40
2023-04-30T04:47:28.733Z,55.50
2023-04-30T04:52:31.056Z,55.50
2023-04-30T04:57:33.548Z,55.60
2023-04-30T05:02:35.877Z,55.60
2023-04-30T05:07:38.596Z,55.60
2023-04-30T05:12:41.771Z,55.70
2023-04-30T05:17:44.063Z,55.60
2023-04-30T05:22:46.564Z,55.10
2023-04-30T05:27:48.835Z,55.80
2023-04-30T05:32:52.662Z,56.20
2023-04-30T05:37:54.988Z,56.30
2023-04-30T05:42:57.195Z,56.30
2023-04-30T05:47:59.420Z,56.20
2023-04-30T05:53:01.651Z,56.20
2023-04-30T05:58:03.922Z,55.80
2023-04-30T06:03:06.464Z,56.20
2023-04-30T06:08:09.170Z,56.10
2023-04-30T06:13:11.713Z,55.90
2023-04-30T06:18:14.494Z,55.80
2023-04-30T06:23:16.718Z,55.80
2023-04-30T06:28:18.885Z,53.70
2023-04-30T06:33:21.812Z,55.40
2023-04-30T06:38:24.219Z,55.20
2023-04-30T06:43:26.401Z,54.70
2023-04-30T06:48:28.596Z,54.20
2023-04-30T06:53:30.804Z,50.30
2023-04-30T06:58:33.100Z,49.30
2023-04-30T07:03:35.719Z,59.50
2023-04-30T07:08:41.136Z,57.90
2023-04-30T07:13:44.438Z,54.00
2023-04-30T07:18:48.970Z,53.50
2023-04-30T07:23:51.702Z,50.90
2023-04-30T07:28:53.981Z,42.80
2023-04-30T07:33:56.473Z,46.30
2023-04-30T07:38:58.861Z,42.80
2023-04-30T07:44:01.494Z,44.00
2023-04-30T07:49:04.204Z,45.20
2023-04-30T07:54:06.590Z,44.70
2023-04-30T07:59:08.941Z,45.40
2023-04-30T08:04:11.451Z,44.70
2023-04-30T08:09:15.809Z,44.90
2023-04-30T08:14:19.332Z,43.50
2023-04-30T08:19:21.589Z,41.00
2023-04-30T08:24:23.945Z,43.30
2023-04-30T08:29:26.479Z,43.90
2023-04-30T08:34:28.676Z,44.20
2023-04-30T08:39:31.313Z,42.40
2023-04-30T08:44:35.389Z,42.90
2023-04-30T08:49:37.784Z,42.20
2023-04-30T08:54:40.061Z,42.40
2023-04-30T08:59:46.576Z,43.80
2023-04-30T09:04:49.787Z,42.40
2023-04-30T09:09:54.149Z,42.60
2023-04-30T09:25:18.512Z,42.70
2023-04-30T09:30:37.103Z,42.20
2023-04-30T09:35:42.650Z,41.80
2023-04-30T09:40:45.240Z,43.00
2023-04-30T09:45:50.130Z,41.20
2023-04-30T09:50:52.709Z,41.70
2023-04-30T09:55:58.408Z,41.80
2023-04-30T10:01:01.591Z,42.30
2023-04-30T10:06:04.284Z,41.10
2023-04-30T10:11:08.389Z,41.80
2023-04-30T10:16:23.581Z,41.70
2023-04-30T10:21:27.347Z,40.70
2023-04-30T10:26:31.074Z,41.40
2023-04-30T10:31:34.305Z,41.80
2023-04-30T10:41:48.934Z,41.90
2023-04-30T10:47:00.113Z,41.90
2023-04-30T10:52:04.284Z,41.50
2023-04-30T10:57:17.731Z,42.10
2023-04-30T11:02:20.090Z,41.90
2023-04-30T11:07:26.291Z,40.80
2023-04-30T11:12:29.569Z,41.80
2023-04-30T11:17:33.661Z,40.60
2023-04-30T11:22:36.455Z,40.80
2023-04-30T11:27:42.225Z,41.60
2023-04-30T11:32:47.870Z,40.90
2023-04-30T11:37:54.964Z,40.80
2023-04-30T11:42:57.446Z,41.00
2023-04-30T11:47:59.973Z,40.30
2023-04-30T11:53:03.801Z,41.00
2023-04-30T11:58:10.707Z,39.90
2023-04-30T12:03:15.872Z,40.90
2023-04-30T12:08:20.056Z,40.90
2023-04-30T12:13:22.594Z,40.00
2023-04-30T12:18:24.926Z,39.30
2023-04-30T12:23:27.255Z,39.10
2023-04-30T12:28:29.542Z,40.50
2023-04-30T12:33:32.228Z,42.10
2023-04-30T12:38:34.501Z,42.00
2023-04-30T12:43:36.764Z,43.70
2023-04-30T12:48:46.445Z,44.90
2023-04-30T12:53:48.698Z,44.60
2023-04-30T12:58:51.398Z,45.20
2023-04-30T13:03:54.170Z,45.60
2023-04-30T13:08:58.850Z,46.60
2023-04-30T13:14:02.678Z,46.00
2023-04-30T13:19:05.351Z,46.60
2023-04-30T13:24:07.680Z,46.80
2023-04-30T13:29:09.953Z,47.20
2023-04-30T13:34:12.184Z,47.20
2023-04-30T13:39:14.499Z,47.40
2023-04-30T13:44:17.277Z,47.00
2023-04-30T13:49:19.491Z,47.10
2023-04-30T13:54:22.040Z,47.50
2023-04-30T13:59:24.292Z,47.40
2023-04-30T14:04:26.581Z,47.60
2023-04-30T14:09:29.366Z,47.90
2023-04-30T14:14:32.748Z,48.10
2023-04-30T14:19:35.246Z,48.10
2023-04-30T14:24:37.475Z,50.00
2023-04-30T14:29:39.629Z,48.60
2023-04-30T14:34:41.886Z,49.00
2023-04-30T14:39:44.333Z,49.10
2023-04-30T14:44:46.556Z,49.30
2023-04-30T14:49:50.318Z,49.40
2023-04-30T14:54:52.682Z,49.30
2023-04-30T14:59:57.768Z,50.10
2023-04-30T15:05:00.182Z,50.80
2023-04-30T15:10:02.936Z,51.10
2023-04-30T15:15:06.920Z,51.70
2023-04-30T15:20:09.567Z,51.00
2023-04-30T15:25:11.804Z,50.70
2023-04-30T15:30:14.269Z,51.10
2023-04-30T15:35:16.528Z,50.80
2023-04-30T15:40:18.808Z,50.80
2023-04-30T15:45:21.073Z,51.20
2023-04-30T15:50:23.278Z,51.10
2023-04-30T15:55:26.121Z,51.40
2023-04-30T16:00:29.364Z,51.60
2023-04-30T16:05:31.764Z,52.00
2023-04-30T16:10:34.032Z,51.40
2023-04-30T16:15:37.572Z,51.30
2023-04-30T16:20:42.731Z,51.00
2023-04-30T16:25:44.898Z,51.60
2023-04-30T16:30:47.061Z,52.00
2023-04-30T16:35:49.270Z,52.10
2023-04-30T16:40:51.735Z,52.30
2023-04-30T16:45:53.986Z,52.60
2023-04-30T16:50:56.607Z,52.30
2023-04-30T16:55:58.787Z,52.90
2023-04-30T17:01:01.279Z,52.70
2023-04-30T17:06:05.348Z,53.10
2023-04-30T17:11:07.935Z,52.60
2023-04-30T17:16:10.482Z,53.10
2023-04-30T17:21:13.230Z,52.70
2023-04-30T17:26:15.441Z,52.80
2023-04-30T17:31:17.903Z,52.60
2023-04-30T17:36:20.259Z,52.20
2023-04-30T17:41:23.118Z,52.20
2023-04-30T17:46:25.387Z,52.80
2023-04-30T17:51:29.480Z,52.30
2023-04-30T17:56:31.764Z,51.80
2023-04-30T18:01:34.016Z,52.10
2023-04-30T18:06:36.388Z,51.60
2023-04-30T18:11:38.645Z,51.90
2023-04-30T18:16:42.856Z,51.80
2023-04-30T18:21:45.480Z,51.70
2023-04-30T18:26:47.764Z,51.60
2023-04-30T18:31:50.091Z,51.40
2023-04-30T18:36:52.551Z,51.40
2023-04-30T18:41:54.719Z,51.40
2023-04-30T18:46:57.246Z,51.20
2023-04-30T18:52:01.156Z,51.00
2023-04-30T18:57:03.367Z,51.00
2023-04-30T19:02:06.328Z,50.90
2023-04-30T19:07:08.958Z,50.80
2023-04-30T19:12:11.718Z,50.80
2023-04-30T19:17:14.630Z,50.60
2023-04-30T19:22:17.475Z,50.60
2023-04-30T19:27:19.732Z,50.60
2023-04-30T19:32:22.158Z,50.40
2023-04-30T19:37:25.186Z,50.30
2023-04-30T19:42:27.387Z,50.20
2023-04-30T19:47:29.625Z,50.10
2023-04-30T19:52:31.816Z,50.10
2023-04-30T19:57:36.024Z,50.10
2023-04-30T20:02:38.879Z,50.00
2023-04-30T20:07:42.280Z,50.00
2023-04-30T20:12:44.491Z,50.10
2023-04-30T20:17:47.255Z,49.80
2023-04-30T20:22:52.116Z,49.80
2023-04-30T20:27:55.903Z,49.70
2023-04-30T20:32:58.128Z,49.90
2023-04-30T20:38:00.595Z,49.70
2023-04-30T20:43:02.851Z,49.60
2023-04-30T20:48:05.811Z,49.70
2023-04-30T20:53:10.831Z,49.50
2023-04-30T20:58:13.575Z,49.50
2023-04-30T21:03:15.913Z,49.50
2023-04-30T21:08:18.169Z,49.70
2023-04-30T21:13:20.835Z,49.70
2023-04-30T21:18:26.556Z,49.70
2023-04-30T21:23:30.133Z,49.80
2023-04-30T21:28:33.758Z,49.80
2023-04-30T21:33:37.407Z,50.00
2023-04-30T21:38:39.601Z,50.00
2023-04-30T21:43:41.929Z,49.80
2023-04-30T21:48:44.183Z,49.90
2023-04-30T21:53:46.723Z,49.90
2023-04-30T21:58:49.099Z,49.90
2023-04-30T22:03:51.491Z,49.80
2023-04-30T22:08:53.784Z,49.80
2023-04-30T22:13:56.087Z,49.80
2023-04-30T22:19:00.226Z,49.80
2023-04-30T22:24:04.194Z,49.80
2023-04-30T22:29:06.448Z,49.80
2023-04-30T22:34:09.403Z,49.50
2023-04-30T22:39:11.905Z,49.80
2023-04-30T22:44:14.954Z,49.80
2023-04-30T22:49:29.996Z,49.70
2023-04-30T22:54:34.672Z,49.50
2023-04-30T22:59:36.873Z,49.70
2023-04-30T23:04:39.253Z,49.70
2023-04-30T23:09:41.604Z,49.80
2023-04-30T23:14:43.875Z,49.70
2023-04-30T23:19:46.764Z,49.80
2023-04-30T23:24:49.292Z,49.90
2023-04-30T23:29:51.577Z,49.90
2023-04-30T23:34:53.928Z,49.90
2023-04-30T23:39:56.393Z,49.90
2023-04-30T23:44:59.052Z,50.00
2023-04-30T23:50:01.260Z,50.00
2023-04-30T23:55:03.861Z,49.90
